Time;durP1;ratioP1;P1;durP2;ratioP2;P2;SDS_P1;SDS_P2;PMS_P1;PMS_P2;Temp;Humidity;BMP_temperature;BMP_pressure;BME280_temperature;BME280_humidity;BME280_pressure;Samples;Min_cycle;Max_cycle;Signal;HPM_P1;HPM_P2
2022/06/02 00:00:52;;;;;;;3.40;3.20;;;20.20;38.00;;;;;;4976114;28;20477;-59
2022/06/02 00:03:41;;;;;;;3.43;2.97;;;20.20;37.90;;;;;;4983605;28;20477;-59
2022/06/02 00:06:24;;;;;;;3.03;2.83;;;20.20;38.00;;;;;;4976030;28;20452;-59
2022/06/02 00:09:13;;;;;;;3.03;2.83;;;20.30;38.00;;;;;;4984032;28;20466;-59
2022/06/02 00:12:00;;;;;;;2.83;2.63;;;20.20;37.90;;;;;;4978108;28;20554;-59
2022/06/02 00:14:41;;;;;;;2.83;2.63;;;20.20;37.90;;;;;;4981047;28;20459;-59
2022/06/02 00:17:45;;;;;;;3.23;3.03;;;20.20;37.90;;;;;;4980171;28;20435;-59
2022/06/02 00:20:29;;;;;;;3.50;3.10;;;20.20;37.90;;;;;;4977250;28;20957;-59
2022/06/02 00:23:25;;;;;;;2.80;2.60;;;20.20;37.90;;;;;;4980930;28;20462;-59
2022/06/02 00:26:24;;;;;;;2.70;2.60;;;20.20;37.90;;;;;;4975145;28;20478;-59
2022/06/02 00:29:18;;;;;;;3.10;2.90;;;20.20;37.80;;;;;;4981942;28;20466;-59
2022/06/02 00:32:06;;;;;;;2.67;2.57;;;20.20;37.80;;;;;;4968272;28;20542;-59
2022/06/02 00:35:05;;;;;;;2.87;2.77;;;20.20;37.90;;;;;;4980505;28;20534;-59
2022/06/02 00:37:47;;;;;;;3.10;2.90;;;20.20;37.80;;;;;;4979466;28;20451;-59
2022/06/02 00:40:14;;;;;;;2.93;2.83;;;20.20;37.80;;;;;;4976215;28;20797;-59
2022/06/02 00:43:18;;;;;;;2.43;2.30;;;20.20;37.90;;;;;;4978316;28;20470;-59
2022/06/02 00:45:45;;;;;;;3.20;3.00;;;20.20;37.80;;;;;;4975499;28;20425;-59
2022/06/02 00:48:25;;;;;;;2.77;2.67;;;20.20;37.80;;;;;;4976891;28;20430;-59
2022/06/02 00:51:04;;;;;;;5.33;2.53;;;20.20;37.80;;;;;;4977216;28;20454;-59
2022/06/02 00:57:32;;;;;;;3.10;2.90;;;20.20;37.80;;;;;;4975480;28;20443;-59
2022/06/02 01:00:40;;;;;;;2.97;2.77;;;20.20;37.80;;;;;;4972728;28;20473;-59
2022/06/02 01:03:13;;;;;;;2.90;2.70;;;20.20;37.70;;;;;;4966835;28;20793;-59
2022/06/02 01:06:14;;;;;;;2.83;2.63;;;20.20;37.80;;;;;;4977031;28;20467;-59
2022/06/02 01:08:49;;;;;;;2.60;2.50;;;20.20;37.80;;;;;;4977928;28;20504;-59
2022/06/02 01:11:23;;;;;;;2.40;2.30;;;20.20;37.80;;;;;;4978687;28;20985;-59
2022/06/02 01:14:26;;;;;;;2.93;2.73;;;20.20;37.80;;;;;;4976481;28;20438;-59
2022/06/02 01:17:15;;;;;;;2.70;2.53;;;20.20;37.70;;;;;;4980141;28;20466;-59
2022/06/02 01:20:05;;;;;;;2.57;2.47;;;20.20;37.80;;;;;;4975977;28;20429;-59
2022/06/02 01:23:04;;;;;;;2.57;2.47;;;20.20;37.70;;;;;;4988284;28;20457;-59
2022/06/02 01:25:53;;;;;;;3.17;2.87;;;20.20;37.70;;;;;;4983905;28;20982;-59
2022/06/02 01:28:38;;;;;;;2.40;2.20;;;20.20;37.70;;;;;;4986900;28;20440;-59
2022/06/02 01:31:18;;;;;;;2.60;2.50;;;20.20;37.80;;;;;;4984487;28;20429;-59
2022/06/02 01:33:54;;;;;;;2.60;2.50;;;20.20;37.70;;;;;;4976161;28;20517;-59
2022/06/02 02:16:51;;;;;;;2.43;2.23;;;20.10;37.50;;;;;;4976345;28;20887;-59
2022/06/02 02:19:25;;;;;;;2.40;2.30;;;20.10;37.50;;;;;;4977241;28;20454;-59
2022/06/02 02:22:02;;;;;;;2.70;2.60;;;20.10;37.40;;;;;;4981388;28;20524;-59
2022/06/02 02:24:28;;;;;;;2.40;2.30;;;20.10;37.40;;;;;;4975335;28;20464;-59
2022/06/02 02:27:12;;;;;;;2.70;2.60;;;20.10;37.50;;;;;;4973886;28;20447;-59
2022/06/02 02:30:05;;;;;;;2.47;2.37;;;20.10;37.40;;;;;;4976443;28;20209;-59
2022/06/02 02:32:49;;;;;;;2.40;2.30;;;20.10;37.30;;;;;;4981552;28;20477;-58
2022/06/02 02:35:34;;;;;;;2.70;2.50;;;20.10;37.40;;;;;;4986956;28;20820;-59
2022/06/02 02:38:16;;;;;;;2.80;2.70;;;20.10;37.30;;;;;;4981331;28;20454;-59
2022/06/02 02:40:58;;;;;;;2.50;2.40;;;20.10;37.30;;;;;;4978917;28;20458;-59
2022/06/02 02:43:29;;;;;;;2.63;2.53;;;20.10;37.20;;;;;;4984478;28;20485;-59
2022/06/02 02:46:17;;;;;;;2.60;2.40;;;20.10;37.20;;;;;;4977547;28;20502;-58
2022/06/02 02:49:04;;;;;;;2.90;2.80;;;20.10;37.30;;;;;;4985711;28;20477;-59
2022/06/02 02:51:54;;;;;;;2.90;2.70;;;20.10;37.20;;;;;;4983787;28;20474;-61
2022/06/02 02:54:37;;;;;;;2.60;2.50;;;20.10;37.20;;;;;;4977401;28;20938;-60
2022/06/02 02:57:24;;;;;;;3.37;2.20;;;20.10;37.20;;;;;;4981527;28;20458;-60
2022/06/02 03:00:05;;;;;;;2.30;2.17;;;20.10;37.20;;;;;;4977434;28;20458;-59
2022/06/02 03:02:33;;;;;;;2.63;2.50;;;20.10;37.20;;;;;;4985730;28;20474;-59
2022/06/02 03:05:26;;;;;;;2.53;2.33;;;20.10;37.20;;;;;;4982296;28;20464;-59
2022/06/02 03:07:55;;;;;;;2.57;2.47;;;20.10;37.10;;;;;;4976424;28;20454;-59
2022/06/02 03:10:40;;;;;;;2.30;2.20;;;20.10;37.10;;;;;;4982515;28;20548;-59
2022/06/02 03:13:16;;;;;;;2.10;2.00;;;20.10;37.20;;;;;;4976050;28;20502;-59
2022/06/02 03:15:52;;;;;;;1.80;1.70;;;20.10;37.50;;;;;;4981344;28;20461;-59
2022/06/02 03:18:49;;;;;;;1.90;1.80;;;20.10;37.70;;;;;;4979732;28;20573;-59
2022/06/02 03:21:18;;;;;;;2.23;1.93;;;20.10;37.90;;;;;;4978592;28;20459;-59
2022/06/02 03:24:10;;;;;;;2.10;2.00;;;20.10;38.20;;;;;;4979516;28;20983;-59
2022/06/02 03:26:51;;;;;;;1.90;1.80;;;20.10;38.30;;;;;;4975109;28;20960;-59
2022/06/02 03:29:34;;;;;;;2.20;2.10;;;20.20;38.70;;;;;;4980038;28;20451;-59
2022/06/02 03:32:08;;;;;;;2.00;1.90;;;20.10;38.80;;;;;;4977367;28;20494;-59
2022/06/02 03:34:58;;;;;;;2.20;2.10;;;20.20;39.00;;;;;;4976847;28;20466;-60
2022/06/02 03:37:48;;;;;;;1.80;1.70;;;20.10;39.00;;;;;;4977131;28;20425;-59
2022/06/02 03:40:34;;;;;;;2.27;2.10;;;20.20;39.40;;;;;;4974520;28;20818;-59
2022/06/02 03:43:26;;;;;;;2.07;1.97;;;20.10;39.30;;;;;;4978866;28;20562;-59
2022/06/02 03:46:12;;;;;;;2.00;1.90;;;20.20;39.40;;;;;;4973498;28;20867;-59
2022/06/02 03:48:54;;;;;;;2.20;2.00;;;20.10;39.30;;;;;;4980450;28;20466;-59
2022/06/02 03:51:40;;;;;;;2.00;1.90;;;20.20;39.40;;;;;;4972978;28;20877;-59
2022/06/02 03:54:26;;;;;;;1.97;1.87;;;20.10;39.30;;;;;;4975391;28;20434;-59
2022/06/02 03:57:24;;;;;;;2.17;1.97;;;20.10;39.30;;;;;;4982190;28;20463;-59
2022/06/02 04:00:09;;;;;;;2.13;2.03;;;20.10;39.30;;;;;;4972840;28;20433;-59
2022/06/02 04:02:45;;;;;;;2.20;2.10;;;20.10;39.30;;;;;;4984282;28;21019;-59
2022/06/02 04:05:49;;;;;;;2.30;2.20;;;20.10;39.30;;;;;;4979277;28;20425;-59
2022/06/02 04:08:29;;;;;;;1.97;1.87;;;20.20;39.40;;;;;;4949421;28;20464;-59
2022/06/02 04:11:10;;;;;;;2.37;2.27;;;20.10;39.30;;;;;;4975960;28;20979;-59
2022/06/02 04:13:49;;;;;;;2.33;2.23;;;20.10;39.30;;;;;;4984704;28;20473;-59
2022/06/02 04:16:38;;;;;;;2.17;2.07;;;20.10;39.50;;;;;;4985651;28;20490;-59
2022/06/02 04:22:25;;;;;;;1.90;1.80;;;20.10;39.60;;;;;;4979904;28;20815;-59
2022/06/02 04:25:24;;;;;;;2.13;2.03;;;20.10;39.70;;;;;;4979112;28;20474;-59
2022/06/02 04:28:07;;;;;;;2.33;2.23;;;20.10;39.70;;;;;;4978228;28;20466;-59
2022/06/02 04:30:53;;;;;;;2.07;1.97;;;20.10;39.80;;;;;;4981306;28;20467;-59
2022/06/02 04:33:33;;;;;;;2.10;2.00;;;20.10;39.80;;;;;;4977315;28;20975;-61
2022/06/02 04:36:32;;;;;;;2.00;1.90;;;20.10;39.80;;;;;;4983177;28;20524;-60
2022/06/02 04:39:28;;;;;;;2.00;1.90;;;20.10;39.90;;;;;;4977816;28;20459;-59
2022/06/02 04:42:03;;;;;;;2.53;2.43;;;20.10;39.80;;;;;;4978762;28;20489;-62
2022/06/02 04:45:15;;;;;;;2.07;1.93;;;20.10;39.90;;;;;;4979267;28;20447;-61
2022/06/02 04:47:52;;;;;;;2.30;2.20;;;20.10;39.90;;;;;;4974739;28;20928;-62
2022/06/02 04:50:41;;;;;;;2.40;2.20;;;20.10;39.90;;;;;;4979540;28;20539;-61
2022/06/02 04:53:34;;;;;;;2.00;1.90;;;20.10;39.90;;;;;;4975509;28;20941;-61
2022/06/02 04:56:21;;;;;;;2.20;2.10;;;20.20;40.00;;;;;;4979789;28;20435;-62
2022/06/02 04:59:15;;;;;;;2.10;2.00;;;20.10;39.90;;;;;;4979038;28;20587;-60
2022/06/02 05:01:55;;;;;;;2.40;2.20;;;20.10;39.90;;;;;;4980681;28;20455;-59
2022/06/02 05:04:30;;;;;;;2.10;2.00;;;20.10;39.90;;;;;;4980706;28;21069;-60
2022/06/02 05:07:26;;;;;;;2.27;2.17;;;20.10;39.90;;;;;;4977877;28;20436;-59
2022/06/02 05:10:02;;;;;;;2.00;1.90;;;20.20;39.90;;;;;;4978734;28;20489;-59
2022/06/02 05:12:37;;;;;;;2.20;2.10;;;20.20;40.10;;;;;;4981931;28;20513;-62
2022/06/02 05:15:12;;;;;;;2.43;2.33;;;20.20;40.10;;;;;;4981520;28;20457;-60
2022/06/02 05:18:15;;;;;;;2.20;2.10;;;20.20;40.10;;;;;;4981158;28;20433;-59
2022/06/02 05:21:22;;;;;;;2.33;2.13;;;20.20;40.00;;;;;;4978679;28;20421;-59
2022/06/02 05:24:15;;;;;;;2.20;2.10;;;20.20;40.10;;;;;;5001036;28;20560;-59
2022/06/02 05:26:59;;;;;;;2.43;2.23;;;20.20;40.10;;;;;;4979660;28;20468;-58
2022/06/02 05:29:35;;;;;;;2.10;2.00;;;20.20;40.10;;;;;;4987201;28;20984;-58
2022/06/02 05:32:14;;;;;;;3.03;2.30;;;20.20;40.90;;;;;;4987235;28;20461;-58
2022/06/02 05:35:05;;;;;;;2.30;2.20;;;20.20;40.10;;;;;;4981106;28;20458;-59
2022/06/02 05:38:07;;;;;;;2.20;2.10;;;20.20;40.10;;;;;;4985735;28;20460;-58
2022/06/02 05:40:38;;;;;;;2.20;2.10;;;20.20;40.20;;;;;;4979113;28;20467;-60
2022/06/02 05:43:29;;;;;;;2.10;2.00;;;20.20;40.20;;;;;;4986412;28;20542;-57
2022/06/02 05:46:26;;;;;;;2.57;2.37;;;20.20;40.20;;;;;;4980719;28;20434;-58
2022/06/02 05:49:14;;;;;;;2.20;2.00;;;20.20;40.20;;;;;;4985995;28;20470;-61
2022/06/02 05:52:18;;;;;;;2.13;2.03;;;20.20;40.20;;;;;;4982227;28;20459;-59
2022/06/02 05:54:47;;;;;;;2.00;1.90;;;20.20;40.20;;;;;;4978251;28;20449;-59
2022/06/02 05:57:41;;;;;;;2.07;1.97;;;20.20;40.30;;;;;;4983881;28;20462;-58
2022/06/02 06:00:51;;;;;;;2.10;2.00;;;20.20;40.30;;;;;;4977780;28;20829;-58
2022/06/02 06:03:41;;;;;;;2.30;2.20;;;20.20;40.30;;;;;;4983899;28;20474;-58
2022/06/02 06:06:18;;;;;;;2.10;2.00;;;20.20;40.30;;;;;;4978795;28;20418;-58
2022/06/02 06:09:06;;;;;;;1.93;1.80;;;20.20;40.30;;;;;;4980065;28;20454;-58
2022/06/02 06:11:41;;;;;;;2.10;2.00;;;20.20;40.30;;;;;;4983461;28;20445;-58
2022/06/02 06:14:33;;;;;;;2.47;2.27;;;20.20;40.40;;;;;;4981836;28;20458;-58
2022/06/02 06:17:22;;;;;;;2.13;2.03;;;20.20;40.30;;;;;;4979204;28;20943;-58
2022/06/02 06:19:56;;;;;;;2.20;2.10;;;20.20;40.40;;;;;;4976993;28;20438;-58
2022/06/02 06:22:54;;;;;;;2.30;2.20;;;20.20;40.50;;;;;;4995604;28;20500;-58
2022/06/02 06:25:49;;;;;;;2.10;2.00;;;20.20;40.50;;;;;;4977025;28;20471;-58
2022/06/02 06:28:17;;;;;;;1.90;1.80;;;20.20;40.40;;;;;;4977881;28;20457;-58
2022/06/02 06:30:53;;;;;;;3.20;2.20;;;20.20;40.60;;;;;;4977831;28;20458;-58
2022/06/02 06:33:52;;;;;;;2.40;2.30;;;20.20;40.50;;;;;;4977401;28;20515;-58
2022/06/02 06:36:29;;;;;;;2.10;2.00;;;20.20;40.50;;;;;;4976900;28;20486;-58
2022/06/02 06:39:21;;;;;;;2.90;2.73;;;20.20;40.50;;;;;;4976670;28;20563;-59
2022/06/02 06:41:56;;;;;;;2.37;2.27;;;20.20;40.60;;;;;;4985278;28;20452;-59
2022/06/02 06:44:52;;;;;;;2.50;2.40;;;20.20;41.30;;;;;;4985847;28;21037;-59
2022/06/02 06:47:29;;;;;;;2.47;2.37;;;20.20;40.50;;;;;;4986361;28;20429;-58
2022/06/02 06:50:13;;;;;;;3.63;2.00;;;20.20;40.50;;;;;;4984476;28;20830;-58
2022/06/02 06:53:03;;;;;;;2.30;2.20;;;20.20;40.60;;;;;;4983808;28;20482;-58
2022/06/02 06:55:50;;;;;;;2.50;2.40;;;20.20;40.50;;;;;;4988845;28;20840;-58
2022/06/02 06:58:31;;;;;;;2.13;2.03;;;20.20;40.60;;;;;;4984186;28;20466;-58
2022/06/02 07:01:20;;;;;;;2.20;2.10;;;20.20;40.60;;;;;;4994207;28;20904;-58
2022/06/02 07:04:15;;;;;;;2.93;2.80;;;20.20;40.60;;;;;;4984873;28;20441;-58
2022/06/02 07:06:40;;;;;;;2.33;2.23;;;20.20;40.60;;;;;;4979488;28;20466;-58
2022/06/02 07:09:16;;;;;;;2.40;2.30;;;20.20;40.60;;;;;;4983826;28;20499;-58
2022/06/02 07:14:57;;;;;;;2.50;2.40;;;20.20;40.60;;;;;;4984569;28;20447;-58
2022/06/02 07:17:32;;;;;;;2.60;2.50;;;20.20;40.60;;;;;;4983187;28;20447;-58
2022/06/02 07:20:18;;;;;;;2.50;2.30;;;20.20;40.60;;;;;;4978204;28;20458;-58
2022/06/02 07:23:15;;;;;;;2.40;2.30;;;20.20;40.60;;;;;;4983247;28;20489;-58
2022/06/02 07:26:28;;;;;;;2.60;2.50;;;20.20;40.60;;;;;;4961781;28;20477;-58
2022/06/02 07:28:57;;;;;;;2.60;2.50;;;20.20;40.60;;;;;;4961461;28;20435;-58
2022/06/02 07:31:44;;;;;;;3.03;2.30;;;20.20;40.70;;;;;;4980063;28;20602;-58
2022/06/02 07:34:38;;;;;;;2.43;2.33;;;20.20;40.70;;;;;;4975191;28;20459;-59
2022/06/02 07:37:26;;;;;;;2.90;2.70;;;20.30;40.70;;;;;;4995354;28;20514;-59
2022/06/02 07:40:04;;;;;;;2.20;2.10;;;20.20;40.70;;;;;;4980944;28;20445;-58
2022/06/02 07:42:59;;;;;;;2.70;2.50;;;20.20;40.60;;;;;;4986848;28;20486;-57
2022/06/02 07:45:36;;;;;;;2.83;2.70;;;20.20;40.60;;;;;;4978962;28;20459;-58
2022/06/02 07:48:07;;;;;;;2.90;2.70;;;20.20;40.70;;;;;;4982869;28;20982;-57
2022/06/02 07:50:35;;;;;;;2.37;2.27;;;20.20;40.80;;;;;;4984131;28;20489;-58
2022/06/02 07:53:13;;;;;;;2.90;2.70;;;20.20;40.70;;;;;;4981776;28;20439;-57
2022/06/02 07:56:03;;;;;;;2.53;2.43;;;20.20;40.70;;;;;;4981736;28;20543;-58
2022/06/02 07:59:19;;;;;;;2.70;2.60;;;20.20;40.70;;;;;;4977980;28;20557;-58
2022/06/02 08:01:50;;;;;;;2.60;2.17;;;20.20;40.70;;;;;;4950915;28;20517;-57
2022/06/02 08:04:50;;;;;;;2.80;2.70;;;20.20;40.80;;;;;;4983953;28;20561;-58
2022/06/02 08:07:49;;;;;;;2.97;2.77;;;20.30;40.80;;;;;;4976362;28;20502;-58
2022/06/02 08:10:32;;;;;;;2.53;2.43;;;20.20;40.80;;;;;;4976948;28;20466;-58
2022/06/02 08:13:17;;;;;;;2.50;2.40;;;20.20;40.80;;;;;;4982002;28;20459;-58
2022/06/02 08:15:50;;;;;;;2.20;2.10;;;20.20;40.80;;;;;;4983634;28;20613;-57
2022/06/02 08:18:36;;;;;;;2.47;2.37;;;20.20;40.90;;;;;;4983186;28;20455;-58
2022/06/02 08:21:21;;;;;;;2.67;2.57;;;20.30;40.90;;;;;;4982003;28;20448;-58
2022/06/02 08:24:07;;;;;;;2.10;2.00;;;20.30;40.90;;;;;;4984073;28;20525;-58
2022/06/02 08:27:02;;;;;;;2.57;2.47;;;20.20;40.80;;;;;;4978213;28;20459;-58
2022/06/02 08:29:46;;;;;;;2.67;2.57;;;20.20;40.80;;;;;;4974451;28;20432;-57
2022/06/02 08:32:36;;;;;;;3.30;3.10;;;20.20;40.90;;;;;;5003168;28;20524;-58
2022/06/02 08:35:11;;;;;;;2.87;2.77;;;20.20;40.90;;;;;;4990560;28;20820;-58
2022/06/02 08:38:04;;;;;;;3.20;2.90;;;20.20;40.90;;;;;;4987380;28;20549;-58
2022/06/02 08:40:36;;;;;;;3.33;3.13;;;20.20;40.90;;;;;;4986508;28;20467;-58
2022/06/02 08:43:13;;;;;;;2.57;2.37;;;20.20;41.00;;;;;;4988054;28;20445;-58
2022/06/02 08:45:50;;;;;;;2.60;2.50;;;20.20;40.90;;;;;;4988318;28;20440;-58
2022/06/02 08:48:46;;;;;;;2.83;2.63;;;20.20;41.00;;;;;;4987874;28;20466;-58
2022/06/02 08:51:46;;;;;;;3.17;2.97;;;20.20;41.70;;;;;;4989561;28;20444;-58
2022/06/02 08:54:41;;;;;;;2.50;2.40;;;20.20;40.90;;;;;;4981364;28;20509;-58
2022/06/02 08:57:31;;;;;;;3.07;2.97;;;20.20;41.00;;;;;;4986311;28;20453;-57
2022/06/02 09:00:33;;;;;;;3.27;2.90;;;20.20;40.90;;;;;;4981349;28;20451;-58
2022/06/02 09:03:04;;;;;;;2.93;2.73;;;20.20;41.00;;;;;;4981026;28;20461;-58
2022/06/02 09:05:50;;;;;;;2.50;2.40;;;20.20;41.00;;;;;;4981918;28;20467;-58
2022/06/02 09:08:40;;;;;;;2.93;2.83;;;20.20;41.00;;;;;;4983648;28;20504;-58
2022/06/02 09:11:27;;;;;;;3.23;3.03;;;20.20;41.00;;;;;;4981521;28;20459;-58
2022/06/02 09:14:13;;;;;;;2.63;2.53;;;20.20;41.00;;;;;;4980832;28;20470;-58
2022/06/02 09:16:55;;;;;;;2.70;2.60;;;20.20;41.00;;;;;;4986002;28;20474;-58
2022/06/02 09:19:35;;;;;;;3.10;2.90;;;20.20;41.00;;;;;;4980583;28;20459;-58
2022/06/02 09:22:38;;;;;;;2.80;2.70;;;20.20;41.10;;;;;;4984260;28;20857;-58
2022/06/02 09:25:18;;;;;;;3.40;3.20;;;20.20;41.00;;;;;;4986736;28;20477;-59
2022/06/02 09:28:17;;;;;;;3.10;2.90;;;20.20;41.10;;;;;;4986346;28;20477;-58
2022/06/02 09:31:07;;;;;;;3.00;2.80;;;20.20;41.10;;;;;;4986757;28;20437;-59
2022/06/02 09:33:46;;;;;;;2.73;2.53;;;20.20;41.10;;;;;;4979841;28;20870;-58
2022/06/02 09:36:27;;;;;;;3.03;2.80;;;20.20;41.10;;;;;;4987656;28;20525;-58
2022/06/02 09:39:21;;;;;;;3.03;2.93;;;20.20;41.10;;;;;;4983421;28;20862;-58
2022/06/02 09:41:49;;;;;;;3.87;3.57;;;20.20;41.10;;;;;;4989697;28;20482;-58
2022/06/02 09:44:41;;;;;;;2.93;2.83;;;20.20;41.10;;;;;;4988130;28;20513;-58
2022/06/02 09:47:21;;;;;;;3.40;3.20;;;20.20;41.10;;;;;;4985335;28;20455;-58
2022/06/02 09:50:04;;;;;;;3.23;3.03;;;20.20;41.10;;;;;;4985414;28;20485;-58
2022/06/02 09:53:01;;;;;;;3.73;3.53;;;20.20;41.10;;;;;;4981831;28;20437;-58
2022/06/02 09:55:44;;;;;;;3.47;3.30;;;20.20;41.10;;;;;;4981596;28;20455;-58
2022/06/02 09:58:41;;;;;;;3.67;3.47;;;20.20;41.10;;;;;;4984902;28;20450;-58
2022/06/02 10:01:17;;;;;;;3.80;3.60;;;20.20;41.10;;;;;;4984325;28;20463;-58
2022/06/02 10:07:38;;;;;;;3.57;3.37;;;20.20;41.10;;;;;;4980647;28;20514;-58
2022/06/02 10:10:30;;;;;;;3.30;3.20;;;20.20;41.20;;;;;;4983439;28;20979;-58
2022/06/02 10:13:02;;;;;;;2.97;2.87;;;20.20;41.20;;;;;;4983403;28;20429;-58
2022/06/02 10:15:49;;;;;;;3.60;3.40;;;20.20;41.20;;;;;;4983564;28;20457;-58
2022/06/02 10:18:51;;;;;;;3.70;3.50;;;20.20;41.20;;;;;;4984921;28;20433;-58
2022/06/02 10:21:32;;;;;;;3.77;3.57;;;20.20;41.20;;;;;;4984004;28;20884;-58
2022/06/02 10:24:24;;;;;;;3.80;3.60;;;20.20;41.20;;;;;;4983447;28;20936;-58
2022/06/02 10:27:14;;;;;;;3.10;2.80;;;20.20;41.20;;;;;;4983440;28;20498;-58
2022/06/02 10:30:28;;;;;;;3.60;3.40;;;20.20;41.20;;;;;;4982595;28;20445;-58
2022/06/02 10:33:19;;;;;;;4.10;3.90;;;20.20;41.30;;;;;;4984558;28;20454;-58
2022/06/02 10:36:09;;;;;;;4.70;4.40;;;20.20;41.30;;;;;;4986102;28;20452;-58
2022/06/02 10:38:53;;;;;;;4.07;3.77;;;20.20;41.30;;;;;;4976459;28;20477;-59
2022/06/02 10:41:58;;;;;;;3.43;3.33;;;20.20;41.30;;;;;;4977271;28;20809;-58
2022/06/02 10:44:59;;;;;;;3.60;3.40;;;20.20;41.30;;;;;;4962727;28;20471;-58
2022/06/02 10:47:55;;;;;;;4.03;3.83;;;20.20;41.30;;;;;;4980692;28;20531;-58
2022/06/02 10:50:48;;;;;;;4.27;4.07;;;20.20;41.30;;;;;;4986763;28;20770;-59
2022/06/02 10:54:00;;;;;;;4.23;4.03;;;20.20;41.30;;;;;;4979246;28;20462;-60
2022/06/02 10:57:36;;;;;;;3.97;3.77;;;20.20;41.30;;;;;;4988628;28;20446;-60
2022/06/02 11:00:34;;;;;;;3.67;3.47;;;20.20;41.30;;;;;;4911391;29;20481;-59
2022/06/02 11:03:24;;;;;;;4.10;3.90;;;20.20;41.40;;;;;;4911382;29;20470;-58
2022/06/02 11:06:08;;;;;;;4.20;3.80;;;20.20;41.30;;;;;;4971270;28;20492;-59
2022/06/02 11:08:54;;;;;;;4.20;4.00;;;20.20;41.30;;;;;;4978312;28;20940;-60
2022/06/02 11:11:41;;;;;;;4.37;4.17;;;20.20;41.30;;;;;;4982465;28;20537;-58
2022/06/02 11:14:48;;;;;;;4.27;4.07;;;20.20;41.40;;;;;;4980193;28;20462;-58
2022/06/02 11:18:09;;;;;;;4.20;4.00;;;20.20;41.30;;;;;;4981639;28;20830;-58
2022/06/02 11:20:56;;;;;;;3.90;3.70;;;20.20;41.30;;;;;;4971952;28;20446;-58
2022/06/02 11:23:46;;;;;;;4.23;3.83;;;20.20;41.40;;;;;;4984025;28;21022;-58
2022/06/02 11:26:35;;;;;;;4.47;4.27;;;20.20;42.10;;;;;;4982032;28;20516;-58
2022/06/02 11:29:46;;;;;;;4.33;4.13;;;20.20;41.40;;;;;;4974117;28;20462;-58
2022/06/02 11:32:33;;;;;;;3.93;3.73;;;20.20;41.40;;;;;;4983305;28;20834;-58
2022/06/02 11:35:16;;;;;;;4.97;4.67;;;20.10;41.30;;;;;;4975353;28;20426;-58
2022/06/02 11:37:53;;;;;;;4.60;4.40;;;20.20;41.50;;;;;;4982221;28;20464;-58
2022/06/02 11:40:29;;;;;;;4.20;4.00;;;20.20;41.40;;;;;;4979752;28;21038;-58
2022/06/02 11:43:10;;;;;;;4.30;4.10;;;20.10;41.30;;;;;;4995991;28;20474;-58
2022/06/02 11:45:50;;;;;;;4.60;4.40;;;20.20;41.50;;;;;;4976858;28;20990;-58
2022/06/02 11:48:38;;;;;;;4.70;4.50;;;20.20;41.50;;;;;;4976823;28;20463;-58
2022/06/02 11:51:25;;;;;;;5.20;4.90;;;20.20;41.50;;;;;;4994230;28;20456;-58
2022/06/02 11:54:19;;;;;;;4.20;4.00;;;20.20;41.40;;;;;;4979179;28;20529;-58
2022/06/02 11:57:22;;;;;;;5.20;4.90;;;20.20;41.50;;;;;;4978337;28;20459;-58
2022/06/02 12:00:33;;;;;;;4.80;4.60;;;20.20;41.50;;;;;;4975812;28;20458;-58
2022/06/02 12:03:23;;;;;;;4.60;4.40;;;20.20;41.50;;;;;;4976959;28;20832;-58
2022/06/02 12:06:21;;;;;;;5.20;5.00;;;20.10;41.30;;;;;;4976757;28;20481;-58
2022/06/02 12:09:14;;;;;;;4.57;4.37;;;20.20;41.50;;;;;;4980498;28;20865;-57
2022/06/02 12:12:07;;;;;;;4.80;4.60;;;20.20;41.50;;;;;;4982734;28;20450;-58
2022/06/02 12:14:55;;;;;;;5.00;4.80;;;20.10;41.30;;;;;;4982465;28;20475;-58
2022/06/02 12:17:23;;;;;;;4.80;4.60;;;20.10;41.30;;;;;;5000891;28;20516;-56
2022/06/02 12:20:18;;;;;;;5.10;4.90;;;20.20;41.50;;;;;;4984905;28;20470;-57
2022/06/02 12:23:09;;;;;;;5.50;5.30;;;20.10;41.40;;;;;;4988267;28;20457;-57
2022/06/02 12:25:52;;;;;;;4.97;4.77;;;20.10;41.30;;;;;;4981401;28;20474;-58
2022/06/02 12:28:36;;;;;;;4.90;4.70;;;20.20;41.50;;;;;;4981198;28;20906;-57
2022/06/02 12:31:35;;;;;;;4.90;4.70;;;20.20;41.50;;;;;;4984567;28;20429;-58
2022/06/02 12:34:39;;;;;;;5.97;5.67;;;20.10;41.40;;;;;;4980865;28;20462;-58
2022/06/02 12:37:37;;;;;;;5.63;5.33;;;20.20;41.60;;;;;;4985521;28;20443;-57
2022/06/02 12:40:17;;;;;;;4.70;4.50;;;20.20;41.50;;;;;;4986002;28;20561;-58
2022/06/02 12:43:19;;;;;;;6.00;5.60;;;20.10;41.50;;;;;;4986821;28;20474;-58
2022/06/02 12:45:53;;;;;;;5.20;4.90;;;20.20;41.60;;;;;;4985839;28;20472;-57
2022/06/02 12:49:09;;;;;;;5.93;5.63;;;20.20;41.60;;;;;;4984613;28;20441;-57
2022/06/02 12:52:22;;;;;;;5.10;4.90;;;20.20;41.50;;;;;;4984002;28;20475;-58
2022/06/02 12:55:24;;;;;;;5.70;5.40;;;20.20;41.60;;;;;;4971282;28;20457;-58
2022/06/02 12:58:26;;;;;;;5.90;5.60;;;20.20;41.60;;;;;;4979356;28;20454;-59
2022/06/02 13:01:20;;;;;;;5.03;4.80;;;20.10;41.50;;;;;;4976405;28;20500;-58
2022/06/02 13:04:10;;;;;;;5.10;4.90;;;20.10;41.50;;;;;;4983563;28;20481;-58
2022/06/02 13:07:12;;;;;;;6.07;5.67;;;20.20;41.70;;;;;;4983153;28;20467;-58
2022/06/02 13:09:47;;;;;;;6.43;5.93;;;20.10;41.50;;;;;;4978429;28;20824;-58
2022/06/02 13:12:31;;;;;;;6.10;5.80;;;20.10;41.50;;;;;;4981567;28;20532;-58
2022/06/02 13:15:16;;;;;;;6.00;5.70;;;20.10;41.50;;;;;;4973579;28;20446;-58
2022/06/02 13:18:10;;;;;;;5.20;5.00;;;20.10;41.50;;;;;;4980076;28;20470;-57
2022/06/02 13:21:12;;;;;;;5.00;4.70;;;20.20;41.60;;;;;;4978362;28;21110;-58
2022/06/02 13:23:44;;;;;;;6.17;5.70;;;20.10;41.60;;;;;;4983597;28;20854;-59
2022/06/02 13:26:39;;;;;;;5.90;5.60;;;20.20;41.60;;;;;;4986524;28;20488;-58
2022/06/02 13:29:21;;;;;;;5.70;5.40;;;20.20;41.60;;;;;;4981095;28;20526;-57
2022/06/02 13:32:08;;;;;;;5.83;5.50;;;20.20;41.70;;;;;;4980456;28;20437;-57
2022/06/02 13:34:42;;;;;;;6.43;6.10;;;20.20;41.60;;;;;;4979113;28;20437;-59
2022/06/02 13:37:29;;;;;;;5.77;5.37;;;20.20;41.60;;;;;;4987029;28;20938;-57
2022/06/02 13:40:16;;;;;;;6.57;6.17;;;20.20;41.60;;;;;;4984802;28;21237;-58
2022/06/02 13:43:07;;;;;;;5.83;5.53;;;20.20;41.60;;;;;;4989825;28;20485;-58
2022/06/02 13:45:54;;;;;;;6.30;6.00;;;20.20;41.60;;;;;;4986465;28;20434;-57
2022/06/02 13:48:44;;;;;;;5.50;5.20;;;20.20;41.70;;;;;;4981941;28;20871;-57
2022/06/02 13:51:28;;;;;;;5.33;5.03;;;20.20;41.60;;;;;;4987131;28;20542;-58
2022/06/02 13:59:58;;;;;;;6.10;5.80;;;20.10;41.60;;;;;;4984474;28;20968;-59
2022/06/02 14:02:56;;;;;;;5.63;5.33;;;20.20;41.70;;;;;;4979509;28;20520;-59
2022/06/02 14:05:42;;;;;;;5.53;5.23;;;20.20;41.70;;;;;;4982898;28;20484;-59
2022/06/02 14:08:35;;;;;;;5.90;5.60;;;20.20;41.70;;;;;;4979815;28;20457;-58
2022/06/02 14:11:41;;;;;;;6.03;5.70;;;20.10;41.60;;;;;;4983405;28;20509;-59
2022/06/02 14:14:43;;;;;;;5.43;5.13;;;20.20;41.70;;;;;;4984538;28;20601;-58
2022/06/02 14:17:36;;;;;;;6.40;6.10;;;20.20;41.70;;;;;;4983478;28;20466;-58
2022/06/02 14:20:20;;;;;;;5.90;5.60;;;20.20;41.70;;;;;;4980757;28;20442;-58
2022/06/02 14:23:12;;;;;;;5.50;5.30;;;20.10;41.60;;;;;;4983844;28;20569;-59
2022/06/02 14:26:03;;;;;;;5.70;5.40;;;20.10;41.60;;;;;;4980902;28;20471;-58
2022/06/02 14:28:44;;;;;;;5.10;4.80;;;20.10;41.60;;;;;;4975831;28;20455;-58
2022/06/02 14:31:41;;;;;;;5.87;5.57;;;20.10;41.60;;;;;;4982466;28;20805;-58
2022/06/02 14:34:28;;;;;;;6.10;5.80;;;20.10;41.60;;;;;;4980971;28;20785;-58
2022/06/02 14:37:09;;;;;;;6.80;6.40;;;20.10;41.60;;;;;;4980624;28;20473;-58
2022/06/02 14:39:47;;;;;;;4.07;3.87;;;20.10;41.60;;;;;;4982300;28;20833;-58
2022/06/02 14:45:33;;;;;;;6.03;5.70;;;20.20;41.70;;;;;;4981399;28;21067;-58
2022/06/02 14:48:23;;;;;;;6.73;6.43;;;20.10;42.40;;;;;;4994497;28;20493;-58
2022/06/02 14:51:10;;;;;;;5.40;5.10;;;20.10;41.60;;;;;;4983173;28;20506;-58
2022/06/02 14:53:47;;;;;;;5.83;5.47;;;20.10;41.60;;;;;;4987509;28;20474;-58
2022/06/02 14:56:18;;;;;;;5.70;5.40;;;20.10;41.70;;;;;;4984116;28;20461;-58
2022/06/02 14:59:15;;;;;;;6.03;5.73;;;20.10;41.70;;;;;;4983641;28;20528;-58
2022/06/02 15:01:53;;;;;;;5.50;5.20;;;20.20;41.80;;;;;;4978740;28;20467;-61
2022/06/02 15:04:53;;;;;;;5.50;5.20;;;20.10;41.70;;;;;;4987888;28;20463;-64
2022/06/02 15:07:39;;;;;;;6.57;6.17;;;20.10;41.70;;;;;;4979857;28;20450;-63
2022/06/02 15:10:25;;;;;;;6.33;6.03;;;20.10;41.70;;;;;;4988043;28;20987;-63
2022/06/02 15:14:15;;;;;;;5.77;5.47;;;20.20;41.70;;;;;;4984737;28;20587;-62
2022/06/02 15:16:41;;;;;;;5.60;5.30;;;20.20;41.80;;;;;;4981021;28;20877;-59
2022/06/02 15:19:44;;;;;;;5.60;5.40;;;20.20;41.70;;;;;;4982294;28;20956;-58
2022/06/02 15:22:28;;;;;;;6.10;5.80;;;20.20;41.70;;;;;;4986692;28;20418;-58
2022/06/02 15:25:09;;;;;;;5.37;5.07;;;20.20;41.70;;;;;;4983420;28;20810;-59
2022/06/02 15:28:02;;;;;;;6.43;6.13;;;20.20;41.80;;;;;;4977432;28;20827;-59
2022/06/02 15:30:49;;;;;;;5.63;5.40;;;20.20;41.70;;;;;;4985740;28;20474;-58
2022/06/02 15:33:50;;;;;;;5.70;5.40;;;20.20;41.80;;;;;;4981508;28;21068;-58
2022/06/02 15:36:22;;;;;;;5.03;4.83;;;20.20;41.70;;;;;;4980843;28;20488;-59